Terminal Aerodrome Forecast
Issued by NWS Des Moines, IA

Home | Current Version | Previous Version | Text Only | Print | Product List | Glossary On
Versions: 1 2 3 4 5 6 7 8 9 10 11 12 13
000
FTUS43 KDMX 281731
TAFDSM
TAF
KDSM 281731Z 2818/2918 29014G21KT P6SM SKC
     FM290100 29009KT P6SM FEW210
     FM291600 30011G19KT P6SM SKC=

USA.gov is the U.S. government's official web portal to all federal, state and local government web resources and services.